createdAt,value
2023-01-03T00:00:49.279Z,4.22
2023-01-03T00:01:53.214Z,3.75
2023-01-03T00:02:57.832Z,4.80
2023-01-03T00:04:01.664Z,4.85
2023-01-03T00:05:04.380Z,4.00
2023-01-03T00:06:26.141Z,4.45
2023-01-03T00:07:34.970Z,4.60
2023-01-03T00:08:37.573Z,4.93
2023-01-03T00:09:40.107Z,4.10
2023-01-03T00:10:42.776Z,3.88
2023-01-03T00:12:07.303Z,4.00
2023-01-03T00:13:09.891Z,3.00
2023-01-03T00:14:17.999Z,4.32
2023-01-03T00:15:20.539Z,4.10
2023-01-03T00:16:23.113Z,3.67
2023-01-03T00:17:25.869Z,3.88
2023-01-03T00:18:28.381Z,3.85
2023-01-03T00:19:35.783Z,4.10
2023-01-03T00:20:38.362Z,4.05
2023-01-03T00:21:42.575Z,4.20
2023-01-03T00:22:45.152Z,4.00
2023-01-03T00:23:47.688Z,3.35
2023-01-03T00:24:52.684Z,4.25
2023-01-03T00:25:55.209Z,3.65
2023-01-03T00:26:57.856Z,3.17
2023-01-03T00:28:00.703Z,3.03
2023-01-03T00:29:04.279Z,3.70
2023-01-03T00:30:09.631Z,4.13
2023-01-03T00:31:13.103Z,3.75
2023-01-03T00:32:15.740Z,3.60
2023-01-03T00:33:19.073Z,3.60
2023-01-03T00:34:21.676Z,3.60
2023-01-03T00:35:24.246Z,3.60
2023-01-03T00:36:26.825Z,3.72
2023-01-03T00:37:29.354Z,3.95
2023-01-03T00:38:31.847Z,4.05
2023-01-03T00:39:34.615Z,3.40
2023-01-03T00:40:37.226Z,3.50
2023-01-03T00:41:41.673Z,3.72
2023-01-03T00:43:02.610Z,3.78
2023-01-03T00:44:06.026Z,3.92
2023-01-03T00:45:10.703Z,3.75
2023-01-03T00:46:15.451Z,3.70
2023-01-03T00:47:18.105Z,3.78
2023-01-03T00:48:20.655Z,4.47
2023-01-03T00:49:23.269Z,3.28
2023-01-03T00:50:25.880Z,3.30
2023-01-03T00:51:33.263Z,3.58
2023-01-03T00:52:35.808Z,3.40
2023-01-03T00:53:39.944Z,3.33
2023-01-03T00:54:42.471Z,3.40
2023-01-03T00:55:45.079Z,4.22
2023-01-03T00:56:49.759Z,3.60
2023-01-03T00:57:52.336Z,3.20
2023-01-03T00:58:55.475Z,3.50
2023-01-03T00:59:58.017Z,3.05
2023-01-03T01:01:13.057Z,3.15
2023-01-03T01:02:15.833Z,3.20
2023-01-03T01:03:18.691Z,3.47
2023-01-03T01:04:31.832Z,3.10
2023-01-03T01:05:34.598Z,3.08
2023-01-03T01:06:42.414Z,3.05
2023-01-03T01:07:45.263Z,3.13
2023-01-03T01:08:49.541Z,2.97
2023-01-03T01:09:52.103Z,2.88
2023-01-03T01:11:03.318Z,3.20
2023-01-03T01:12:07.476Z,3.40
2023-01-03T01:13:10.065Z,2.50
2023-01-03T01:14:22.410Z,3.40
2023-01-03T01:15:25.088Z,2.72
2023-01-03T01:16:32.982Z,2.97
2023-01-03T01:17:35.657Z,2.80
2023-01-03T01:18:39.705Z,2.97
2023-01-03T01:19:44.021Z,3.22
2023-01-03T01:20:46.555Z,2.67
2023-01-03T01:21:49.671Z,2.28
2023-01-03T01:22:52.296Z,2.50
2023-01-03T01:23:54.873Z,2.80
2023-01-03T01:24:57.457Z,3.38
2023-01-03T01:26:01.741Z,3.00
2023-01-03T01:27:04.462Z,3.08
2023-01-03T01:28:06.984Z,3.38
2023-01-03T01:29:12.766Z,3.00
2023-01-03T01:30:15.695Z,3.30
2023-01-03T01:31:21.424Z,3.70
2023-01-03T01:32:24.185Z,2.75
2023-01-03T01:33:27.380Z,3.03
2023-01-03T01:34:30.171Z,2.65
2023-01-03T01:35:33.033Z,3.03
2023-01-03T01:36:37.725Z,3.20
2023-01-03T01:37:40.488Z,3.05
2023-01-03T01:38:45.306Z,2.63
2023-01-03T01:39:47.833Z,3.67
2023-01-03T01:40:50.416Z,3.25
2023-01-03T01:42:20.806Z,2.90
2023-01-03T01:43:43.585Z,2.83
2023-01-03T01:45:09.350Z,3.13
2023-01-03T01:46:25.522Z,3.45
2023-01-03T01:47:46.298Z,2.45
2023-01-03T01:48:56.684Z,3.10
2023-01-03T01:50:13.842Z,2.70
2023-01-03T01:51:18.848Z,3.20
2023-01-03T01:52:22.163Z,2.70
2023-01-03T01:53:34.016Z,2.65
2023-01-03T01:54:37.382Z,3.17
2023-01-03T01:56:19.438Z,3.10
2023-01-03T01:57:24.637Z,3.15
2023-01-03T01:58:34.217Z,3.10
2023-01-03T01:59:37.278Z,3.17
2023-01-03T02:00:42.407Z,3.00
2023-01-03T02:01:47.908Z,3.70
2023-01-03T02:02:53.231Z,3.58
2023-01-03T02:04:02.271Z,3.28
2023-01-03T02:05:07.499Z,2.90
2023-01-03T02:06:12.723Z,2.97
2023-01-03T02:07:17.770Z,2.88
2023-01-03T02:08:21.065Z,4.10
2023-01-03T02:09:23.615Z,3.47
2023-01-03T02:11:12.723Z,3.75
2023-01-03T02:12:43.608Z,4.10
2023-01-03T02:14:13.897Z,3.15
2023-01-03T02:15:41.204Z,3.70
2023-01-03T02:17:21.884Z,3.33
2023-01-03T02:18:51.077Z,3.10
2023-01-03T02:20:18.895Z,4.40
2023-01-03T02:21:51.778Z,3.70
2023-01-03T02:23:02.988Z,3.80
2023-01-03T02:24:36.231Z,3.47
2023-01-03T02:26:12.143Z,3.28
2023-01-03T02:27:51.519Z,3.40
2023-01-03T02:29:41.009Z,3.55
2023-01-03T02:31:03.942Z,2.80
2023-01-03T02:32:34.974Z,3.05
2023-01-03T02:33:57.337Z,3.88
2023-01-03T02:35:30.672Z,4.28
2023-01-03T02:36:53.196Z,3.25
2023-01-03T02:38:39.814Z,3.28
2023-01-03T02:40:05.176Z,3.50
2023-01-03T02:41:28.589Z,3.80
2023-01-03T02:42:59.096Z,3.75
2023-01-03T02:44:14.323Z,3.75
2023-01-03T02:45:24.256Z,3.72
2023-01-03T02:46:43.904Z,4.05
2023-01-03T02:48:09.493Z,4.20
2023-01-03T02:49:32.514Z,3.80
2023-01-03T02:50:47.795Z,3.17
2023-01-03T02:52:08.278Z,3.75
2023-01-03T02:53:17.575Z,3.90
2023-01-03T02:54:28.669Z,3.45
2023-01-03T02:55:33.878Z,3.25
2023-01-03T02:56:43.136Z,3.35
2023-01-03T02:58:11.036Z,3.40
2023-01-03T02:59:18.216Z,2.97
2023-01-03T03:00:26.177Z,3.28
2023-01-03T03:01:30.725Z,3.00
2023-01-03T03:02:37.043Z,3.67
2023-01-03T03:03:40.748Z,3.47
2023-01-03T03:04:45.426Z,3.22
2023-01-03T03:05:59.838Z,2.92
2023-01-03T03:07:09.118Z,3.13
2023-01-03T03:08:11.680Z,2.90
2023-01-03T03:09:14.290Z,3.40
2023-01-03T03:10:35.887Z,3.17
2023-01-03T03:12:00.579Z,2.63
2023-01-03T03:13:51.313Z,3.58
2023-01-03T03:14:55.566Z,3.08
2023-01-03T03:16:18.270Z,3.25
2023-01-03T03:17:28.665Z,2.78
2023-01-03T03:19:01.616Z,2.90
2023-01-03T03:20:34.230Z,3.10
2023-01-03T03:21:56.044Z,3.90
2023-01-03T03:23:24.526Z,2.63
2023-01-03T03:24:49.482Z,2.60
2023-01-03T03:26:12.024Z,2.88
2023-01-03T03:27:38.078Z,2.30
2023-01-03T03:28:45.063Z,2.50
2023-01-03T03:29:48.406Z,2.60
2023-01-03T03:30:55.397Z,2.97
2023-01-03T03:31:58.017Z,2.55
2023-01-03T03:33:05.915Z,2.83
2023-01-03T03:34:31.479Z,3.10
2023-01-03T03:35:48.297Z,2.50
2023-01-03T03:37:04.701Z,2.90
2023-01-03T03:38:11.596Z,2.58
2023-01-03T03:39:34.657Z,2.40
2023-01-03T03:41:06.341Z,2.35
2023-01-03T03:42:48.882Z,3.33
2023-01-03T03:44:27.459Z,2.30
2023-01-03T03:46:06.087Z,2.22
2023-01-03T03:47:28.816Z,2.50
2023-01-03T03:49:19.012Z,2.20
2023-01-03T03:50:36.107Z,1.80
2023-01-03T03:51:42.391Z,2.05
2023-01-03T03:52:48.900Z,2.28
2023-01-03T03:53:53.877Z,2.22
2023-01-03T03:55:05.720Z,1.95
2023-01-03T03:56:16.956Z,2.50
2023-01-03T03:57:34.866Z,1.92
2023-01-03T03:58:44.993Z,2.00
2023-01-03T03:59:53.681Z,2.20
2023-01-03T04:00:57.945Z,2.28
2023-01-03T04:02:04.404Z,2.53
2023-01-03T04:03:09.782Z,3.20
2023-01-03T04:04:21.816Z,2.38
2023-01-03T04:05:27.621Z,2.30
2023-01-03T04:06:39.835Z,2.13
2023-01-03T04:07:42.433Z,2.13
2023-01-03T04:08:46.128Z,1.63
2023-01-03T04:09:48.732Z,2.08
2023-01-03T04:10:51.358Z,2.30
2023-01-03T04:11:53.918Z,2.10
2023-01-03T04:12:57.211Z,2.45
2023-01-03T04:13:59.862Z,1.90
2023-01-03T04:15:03.948Z,1.90
2023-01-03T04:16:07.665Z,2.10
2023-01-03T04:17:10.752Z,2.20
2023-01-03T04:18:13.313Z,2.20
2023-01-03T04:19:15.851Z,2.00
2023-01-03T04:20:19.213Z,2.15
2023-01-03T04:21:21.743Z,2.22
2023-01-03T04:22:24.475Z,2.08
2023-01-03T04:23:27.036Z,2.15
2023-01-03T04:24:29.554Z,2.05
2023-01-03T04:25:32.062Z,1.83
2023-01-03T04:26:34.658Z,2.05
2023-01-03T04:27:37.240Z,1.55
2023-01-03T04:28:39.762Z,1.95
2023-01-03T04:29:42.340Z,2.33
2023-01-03T04:30:45.493Z,2.10
2023-01-03T04:31:48.102Z,2.28
2023-01-03T04:32:50.827Z,2.10
2023-01-03T04:33:54.095Z,2.15
2023-01-03T04:34:56.635Z,2.35
2023-01-03T04:35:59.138Z,2.45
2023-01-03T04:37:01.682Z,2.78
2023-01-03T04:38:05.616Z,2.00
2023-01-03T04:39:08.134Z,2.20
2023-01-03T04:40:11.583Z,2.30
2023-01-03T04:41:14.183Z,2.28
2023-01-03T04:42:35.472Z,1.90
2023-01-03T04:43:56.671Z,2.45
2023-01-03T04:44:59.300Z,2.13
2023-01-03T04:46:01.855Z,2.65
2023-01-03T04:47:04.427Z,2.83
2023-01-03T04:48:07.392Z,2.10
2023-01-03T04:49:10.850Z,2.13
2023-01-03T04:50:13.429Z,2.22
2023-01-03T04:51:15.996Z,2.05
2023-01-03T04:52:18.576Z,2.10
2023-01-03T04:53:23.357Z,2.28
2023-01-03T04:54:25.888Z,1.85
2023-01-03T04:55:28.417Z,2.15
2023-01-03T04:56:36.506Z,2.22
2023-01-03T04:57:39.111Z,2.20
2023-01-03T04:58:41.640Z,1.83
2023-01-03T04:59:44.246Z,2.08
2023-01-03T05:00:47.220Z,1.63
2023-01-03T05:01:52.459Z,1.70
2023-01-03T05:02:55.211Z,1.63
2023-01-03T05:04:00.901Z,1.73
2023-01-03T05:05:03.780Z,1.80
2023-01-03T05:06:09.078Z,2.28
2023-01-03T05:07:11.662Z,2.20
2023-01-03T05:08:14.187Z,2.17
2023-01-03T05:09:16.768Z,1.90
2023-01-03T05:10:19.526Z,1.77
2023-01-03T05:11:22.067Z,1.77
2023-01-03T05:12:25.061Z,2.05
2023-01-03T05:13:27.659Z,2.20
2023-01-03T05:14:30.260Z,1.92
2023-01-03T05:15:37.580Z,1.88
2023-01-03T05:16:40.339Z,1.73
2023-01-03T05:17:42.927Z,1.60
2023-01-03T05:18:46.333Z,2.00
2023-01-03T05:20:07.721Z,1.88
2023-01-03T05:21:37.788Z,2.03
2023-01-03T05:22:58.932Z,1.40
2023-01-03T05:24:20.229Z,2.08
2023-01-03T05:25:41.408Z,1.63
2023-01-03T05:26:44.525Z,1.80
2023-01-03T05:27:47.072Z,1.88
2023-01-03T05:28:54.701Z,1.75
2023-01-03T05:29:57.923Z,1.98
2023-01-03T05:31:01.132Z,1.80
2023-01-03T05:32:03.944Z,2.10
2023-01-03T05:33:06.572Z,1.60
2023-01-03T05:34:09.169Z,1.52
2023-01-03T05:35:11.741Z,1.90
2023-01-03T05:36:16.306Z,1.70
2023-01-03T05:37:19.310Z,1.83
2023-01-03T05:38:23.891Z,2.47
2023-01-03T05:39:26.408Z,1.80
2023-01-03T05:40:29.040Z,1.98
2023-01-03T05:41:50.478Z,1.80
2023-01-03T05:42:52.999Z,1.60
2023-01-03T05:43:55.554Z,1.50
2023-01-03T05:44:58.065Z,1.70
2023-01-03T05:46:00.713Z,1.65
2023-01-03T05:47:05.922Z,1.83
2023-01-03T05:48:09.730Z,1.90
2023-01-03T05:49:12.273Z,1.77
2023-01-03T05:50:14.814Z,1.70
2023-01-03T05:51:17.319Z,1.95
2023-01-03T05:52:20.702Z,1.83
2023-01-03T05:53:23.217Z,1.90
2023-01-03T05:54:26.020Z,2.13
2023-01-03T05:55:28.566Z,3.95
2023-01-03T05:56:32.351Z,2.05
2023-01-03T05:57:35.599Z,2.10
2023-01-03T05:58:38.213Z,1.90
2023-01-03T05:59:40.811Z,1.95
2023-01-03T06:00:43.390Z,1.80
2023-01-03T06:01:46.107Z,2.03
2023-01-03T06:02:48.733Z,1.80
2023-01-03T06:03:51.337Z,2.00
2023-01-03T06:04:53.993Z,2.33
2023-01-03T06:06:04.107Z,1.60
2023-01-03T06:07:06.869Z,1.80
2023-01-03T06:08:09.388Z,2.40
2023-01-03T06:09:12.221Z,2.13
2023-01-03T06:10:14.732Z,2.10
2023-01-03T06:11:18.327Z,2.08
2023-01-03T06:12:20.939Z,1.80
2023-01-03T06:13:24.047Z,1.73
2023-01-03T06:14:26.683Z,1.73
2023-01-03T06:15:29.200Z,2.10
2023-01-03T06:16:50.389Z,1.70
2023-01-03T06:17:57.954Z,2.00
2023-01-03T06:19:02.202Z,1.98
2023-01-03T06:20:05.286Z,1.98
2023-01-03T06:21:07.871Z,2.00
2023-01-03T06:22:11.261Z,1.77
2023-01-03T06:23:14.949Z,2.10
2023-01-03T06:24:17.507Z,2.15
2023-01-03T06:25:20.101Z,1.98
2023-01-03T06:26:24.583Z,2.00
2023-01-03T06:27:27.139Z,1.77
2023-01-03T06:28:29.658Z,1.75
2023-01-03T06:29:32.250Z,1.60
2023-01-03T06:30:34.823Z,2.30
2023-01-03T06:31:38.118Z,2.08
2023-01-03T06:32:40.689Z,1.65
2023-01-03T06:33:43.509Z,1.60
2023-01-03T06:34:46.060Z,1.70
2023-01-03T06:35:48.738Z,1.42
2023-01-03T06:36:51.315Z,1.52
2023-01-03T06:37:53.849Z,1.80
2023-01-03T06:38:56.365Z,1.50
2023-01-03T06:39:59.005Z,1.65
2023-01-03T06:41:01.906Z,2.00
2023-01-03T06:42:23.878Z,2.15
2023-01-03T06:43:27.130Z,1.60
2023-01-03T06:44:29.724Z,2.10
2023-01-03T06:45:50.513Z,1.73
2023-01-03T06:47:28.696Z,2.00
2023-01-03T06:48:50.086Z,1.90
2023-01-03T06:50:11.142Z,1.92
2023-01-03T06:51:36.950Z,1.70
2023-01-03T06:52:58.137Z,1.85
2023-01-03T06:54:00.677Z,1.83
2023-01-03T06:55:03.395Z,2.08
2023-01-03T06:56:07.577Z,2.30
2023-01-03T06:57:10.117Z,1.77
2023-01-03T06:58:29.700Z,2.10
2023-01-03T06:59:32.493Z,1.83
2023-01-03T07:00:37.526Z,2.45
2023-01-03T07:01:40.518Z,2.05
2023-01-03T07:02:43.329Z,2.00
2023-01-03T07:03:46.305Z,2.22
2023-01-03T07:04:48.961Z,2.50
2023-01-03T07:05:51.997Z,2.50
2023-01-03T07:06:54.632Z,2.00
2023-01-03T07:07:57.190Z,2.30
2023-01-03T07:08:59.803Z,2.75
2023-01-03T07:10:02.445Z,2.28
2023-01-03T07:11:05.308Z,2.70
2023-01-03T07:12:39.928Z,2.50
2023-01-03T07:14:00.711Z,2.40
2023-01-03T07:15:03.679Z,3.10
2023-01-03T07:16:06.523Z,2.97
2023-01-03T07:17:09.124Z,3.65
2023-01-03T07:18:12.126Z,2.67
2023-01-03T07:19:20.031Z,3.38
2023-01-03T07:20:22.911Z,2.60
2023-01-03T07:21:28.212Z,2.78
2023-01-03T07:22:30.767Z,3.47
2023-01-03T07:23:33.374Z,3.20
2023-01-03T07:24:36.811Z,2.55
2023-01-03T07:25:41.416Z,2.90
2023-01-03T07:26:43.962Z,2.90
2023-01-03T07:28:01.847Z,3.22
2023-01-03T07:29:10.449Z,2.85
2023-01-03T07:30:13.531Z,3.50
2023-01-03T07:31:16.463Z,3.05
2023-01-03T07:32:19.028Z,3.08
2023-01-03T07:33:21.607Z,3.00
2023-01-03T07:34:24.121Z,2.88
2023-01-03T07:35:27.116Z,4.00
2023-01-03T07:36:29.812Z,2.85
2023-01-03T07:37:32.604Z,3.17
2023-01-03T07:38:35.428Z,2.92
2023-01-03T07:39:37.953Z,3.20
2023-01-03T07:40:40.621Z,3.30
2023-01-03T07:42:02.165Z,3.65
2023-01-03T07:43:40.322Z,3.20
2023-01-03T07:44:42.958Z,2.60
2023-01-03T07:45:47.005Z,3.53
2023-01-03T07:46:49.697Z,3.78
2023-01-03T07:47:53.058Z,3.53
2023-01-03T07:49:06.519Z,3.58
2023-01-03T07:50:14.377Z,2.80
2023-01-03T07:51:19.677Z,3.20
2023-01-03T07:52:22.216Z,3.85
2023-01-03T07:53:25.177Z,3.20
2023-01-03T07:54:27.765Z,3.15
2023-01-03T07:55:35.348Z,3.38
2023-01-03T07:56:38.200Z,3.20
2023-01-03T07:57:40.740Z,3.28
2023-01-03T07:58:44.702Z,2.75
2023-01-03T07:59:47.278Z,2.88
2023-01-03T08:00:49.861Z,3.30
2023-01-03T08:01:52.658Z,2.95
2023-01-03T08:02:56.338Z,2.92
2023-01-03T08:03:58.993Z,2.92
2023-01-03T08:05:01.717Z,3.30
2023-01-03T08:06:13.539Z,3.00
2023-01-03T08:07:16.114Z,2.80
2023-01-03T08:08:18.648Z,2.70
2023-01-03T08:09:39.453Z,2.75
2023-01-03T08:11:00.340Z,2.80
2023-01-03T08:12:21.383Z,3.10
2023-01-03T08:13:25.185Z,3.17
2023-01-03T08:14:27.841Z,3.40
2023-01-03T08:15:30.485Z,3.40
2023-01-03T08:16:33.090Z,3.70
2023-01-03T08:17:35.817Z,3.33
2023-01-03T08:18:40.307Z,2.50
2023-01-03T08:19:45.770Z,2.97
2023-01-03T08:20:49.326Z,3.03
2023-01-03T08:21:52.043Z,3.60
2023-01-03T08:22:54.621Z,2.97
2023-01-03T08:23:57.264Z,3.45
2023-01-03T08:24:59.799Z,3.10
2023-01-03T08:26:12.296Z,2.97
2023-01-03T08:27:14.968Z,2.72
2023-01-03T08:28:18.680Z,3.40
2023-01-03T08:29:21.321Z,2.78
2023-01-03T08:30:24.188Z,2.55
2023-01-03T08:31:30.987Z,2.90
2023-01-03T08:32:34.314Z,2.30
2023-01-03T08:33:44.519Z,2.80
2023-01-03T08:34:48.579Z,2.28
2023-01-03T08:36:01.395Z,2.90
2023-01-03T08:37:10.395Z,3.03
2023-01-03T08:38:23.809Z,2.85
2023-01-03T08:39:33.957Z,2.65
2023-01-03T08:40:42.078Z,2.50
2023-01-03T08:41:53.880Z,2.75
2023-01-03T08:42:56.544Z,2.88
2023-01-03T08:44:02.740Z,3.00
2023-01-03T08:45:10.672Z,2.90
2023-01-03T08:46:15.055Z,2.50
2023-01-03T08:47:18.287Z,3.20
2023-01-03T08:48:22.587Z,3.72
2023-01-03T08:49:26.252Z,3.50
2023-01-03T08:50:30.737Z,2.92
2023-01-03T08:51:33.555Z,3.03
2023-01-03T08:52:36.165Z,2.70
2023-01-03T08:53:40.098Z,3.30
2023-01-03T08:54:44.066Z,3.00
2023-01-03T08:55:46.794Z,3.15
2023-01-03T08:56:49.301Z,2.85
2023-01-03T08:57:51.887Z,3.50
2023-01-03T08:58:57.731Z,2.85
2023-01-03T09:00:00.258Z,3.00
2023-01-03T09:01:04.920Z,2.83
2023-01-03T09:02:07.874Z,2.70
2023-01-03T09:03:10.800Z,3.53
2023-01-03T09:04:13.579Z,3.20
2023-01-03T09:05:17.019Z,3.05
2023-01-03T09:06:20.405Z,3.03
2023-01-03T09:07:22.908Z,3.00
2023-01-03T09:08:25.434Z,3.05
2023-01-03T09:09:28.153Z,2.90
2023-01-03T09:10:30.712Z,2.70
2023-01-03T09:11:33.386Z,3.30
2023-01-03T09:12:36.079Z,2.88
2023-01-03T09:13:39.041Z,3.25
2023-01-03T09:14:41.606Z,3.03
2023-01-03T09:15:44.217Z,3.00
2023-01-03T09:16:49.213Z,2.92
2023-01-03T09:17:51.962Z,2.80
2023-01-03T09:18:54.542Z,3.00
2023-01-03T09:19:57.095Z,3.05
2023-01-03T09:21:00.184Z,2.88
2023-01-03T09:22:03.142Z,2.63
2023-01-03T09:23:05.686Z,3.08
2023-01-03T09:24:08.741Z,3.10
2023-01-03T09:25:11.426Z,3.10
2023-01-03T09:26:14.328Z,2.95
2023-01-03T09:27:17.106Z,3.50
2023-01-03T09:28:19.773Z,3.28
2023-01-03T09:29:22.805Z,3.20
2023-01-03T09:30:25.989Z,3.10
2023-01-03T09:31:30.076Z,3.30
2023-01-03T09:32:32.781Z,3.15
2023-01-03T09:33:35.402Z,3.88
2023-01-03T09:34:38.115Z,3.20
2023-01-03T09:35:40.774Z,3.95
2023-01-03T09:36:43.332Z,2.97
2023-01-03T09:37:49.108Z,3.90
2023-01-03T09:38:51.755Z,2.90
2023-01-03T09:39:54.303Z,4.10
2023-01-03T09:41:10.962Z,3.70
2023-01-03T09:42:44.186Z,3.80
2023-01-03T09:43:50.982Z,4.68
2023-01-03T09:44:54.382Z,5.70
2023-01-03T09:45:58.641Z,5.50
2023-01-03T09:47:02.825Z,5.13
2023-01-03T09:48:06.290Z,5.32
2023-01-03T09:49:13.680Z,5.13
2023-01-03T09:50:35.240Z,5.40
2023-01-03T09:52:10.851Z,4.53
2023-01-03T09:53:52.980Z,4.75
2023-01-03T09:55:14.395Z,4.03
2023-01-03T09:56:25.904Z,4.80
2023-01-03T09:57:54.323Z,5.13
2023-01-03T09:59:21.451Z,3.67
2023-01-03T10:00:49.372Z,4.10
2023-01-03T10:03:25.295Z,4.70
2023-01-03T10:04:53.595Z,4.68
2023-01-03T10:06:26.427Z,4.32
2023-01-03T10:08:19.020Z,4.30
2023-01-03T10:09:34.620Z,4.65
2023-01-03T10:10:49.085Z,4.45
2023-01-03T10:12:00.212Z,4.03
2023-01-03T10:13:17.824Z,4.20
2023-01-03T10:14:33.587Z,4.18
2023-01-03T10:16:02.126Z,4.05
2023-01-03T10:17:34.842Z,3.92
2023-01-03T10:18:37.456Z,3.90
2023-01-03T10:20:18.220Z,4.13
2023-01-03T10:22:01.819Z,4.20
2023-01-03T10:23:08.875Z,3.30
2023-01-03T10:24:29.434Z,4.13
2023-01-03T10:25:32.182Z,4.30
2023-01-03T10:26:35.189Z,3.63
2023-01-03T10:27:54.680Z,3.63
2023-01-03T10:28:57.242Z,3.75
2023-01-03T10:30:06.193Z,3.90
2023-01-03T10:31:39.274Z,4.15
2023-01-03T10:32:50.942Z,3.40
2023-01-03T10:33:53.499Z,2.95
2023-01-03T10:35:02.694Z,3.33
2023-01-03T10:36:06.163Z,3.40
2023-01-03T10:37:20.197Z,3.45
2023-01-03T10:38:23.380Z,3.50
2023-01-03T10:39:31.747Z,3.92
2023-01-03T10:40:40.827Z,3.92
2023-01-03T10:41:48.836Z,4.25
2023-01-03T10:42:55.810Z,4.53
2023-01-03T10:44:01.484Z,4.20
2023-01-03T10:45:10.503Z,4.65
2023-01-03T10:46:21.879Z,3.80
2023-01-03T10:47:27.048Z,4.28
2023-01-03T10:50:30.320Z,3.60
2023-01-03T10:52:01.131Z,4.88
2023-01-03T10:53:08.976Z,4.53
2023-01-03T10:54:52.963Z,4.38
2023-01-03T10:55:58.396Z,4.80
2023-01-03T10:57:01.330Z,4.50
2023-01-03T10:58:36.713Z,4.55
2023-01-03T10:59:50.197Z,4.00
2023-01-03T11:01:09.690Z,4.30
2023-01-03T11:02:13.678Z,4.40
2023-01-03T11:03:23.741Z,4.00
2023-01-03T11:04:28.830Z,3.58
2023-01-03T11:05:31.603Z,5.40
2023-01-03T11:06:34.257Z,5.10
2023-01-03T11:07:52.522Z,4.72
2023-01-03T11:09:03.054Z,4.65
2023-01-03T11:10:15.929Z,4.78
2023-01-03T11:11:32.405Z,4.25
2023-01-03T11:12:40.415Z,4.65
2023-01-03T11:13:43.302Z,3.90
2023-01-03T11:14:56.046Z,5.00
2023-01-03T11:16:02.851Z,4.40
2023-01-03T11:17:09.589Z,4.30
2023-01-03T11:18:22.990Z,4.45
2023-01-03T11:19:29.389Z,4.40
2023-01-03T11:20:49.884Z,5.38
2023-01-03T11:22:23.872Z,3.92
2023-01-03T11:24:08.549Z,4.88
2023-01-03T11:25:23.073Z,5.20
2023-01-03T11:27:07.408Z,5.43
2023-01-03T11:29:01.017Z,4.20
2023-01-03T11:30:19.078Z,4.88
2023-01-03T11:31:48.337Z,4.65
2023-01-03T11:33:27.387Z,4.93
2023-01-03T11:35:22.880Z,4.53
2023-01-03T11:36:43.554Z,4.30
2023-01-03T11:38:30.270Z,5.00
2023-01-03T11:40:02.106Z,4.68
2023-01-03T11:41:48.451Z,4.55
2023-01-03T11:43:19.259Z,4.43
2023-01-03T11:45:01.779Z,4.22
2023-01-03T11:46:25.024Z,3.90
2023-01-03T11:47:45.776Z,5.15
2023-01-03T11:49:02.847Z,4.63
2023-01-03T11:50:21.707Z,4.03
2023-01-03T11:52:01.527Z,4.38
2023-01-03T11:53:24.506Z,3.90
2023-01-03T11:55:05.896Z,4.03
2023-01-03T11:56:29.017Z,3.38
2023-01-03T11:58:21.555Z,4.00
2023-01-03T12:00:02.351Z,3.60
2023-01-03T12:01:51.545Z,3.80
2023-01-03T12:03:19.062Z,3.40
2023-01-03T12:05:00.910Z,3.75
2023-01-03T12:06:22.386Z,3.30
2023-01-03T12:08:00.727Z,3.92
2023-01-03T12:09:43.749Z,3.10
2023-01-03T12:11:02.561Z,3.30
2023-01-03T12:12:58.581Z,3.80
2023-01-03T12:14:27.809Z,3.10
2023-01-03T12:15:50.602Z,3.40
2023-01-03T12:17:15.530Z,3.35
2023-01-03T12:18:37.922Z,3.53
2023-01-03T12:19:51.028Z,3.50
2023-01-03T12:21:33.576Z,4.90
2023-01-03T12:22:48.062Z,4.47
2023-01-03T12:24:06.249Z,4.97
2023-01-03T12:25:27.245Z,4.45
2023-01-03T12:26:32.109Z,4.65
2023-01-03T12:27:46.352Z,4.75
2023-01-03T12:29:03.474Z,5.80
2023-01-03T12:30:29.142Z,5.22
2023-01-03T12:31:48.282Z,4.70
2023-01-03T12:33:07.835Z,4.82
2023-01-03T12:34:32.747Z,5.00
2023-01-03T12:35:56.503Z,3.70
2023-01-03T12:37:24.547Z,4.20
2023-01-03T12:38:33.412Z,5.40
2023-01-03T12:39:57.512Z,4.47
2023-01-03T12:41:12.123Z,4.15
2023-01-03T12:42:29.798Z,4.75
2023-01-03T12:44:17.635Z,4.45
2023-01-03T12:45:34.288Z,4.68
2023-01-03T12:46:45.776Z,4.40
2023-01-03T12:48:05.219Z,4.60
2023-01-03T12:49:26.223Z,3.92
2023-01-03T12:50:41.417Z,3.28
2023-01-03T12:51:44.277Z,4.00
2023-01-03T12:52:58.429Z,4.70
2023-01-03T12:54:31.498Z,4.20
2023-01-03T12:55:56.286Z,5.20
2023-01-03T12:57:46.142Z,4.70
2023-01-03T12:59:16.828Z,4.32
2023-01-03T13:00:21.952Z,4.35
2023-01-03T13:01:53.774Z,4.45
2023-01-03T13:03:19.209Z,4.15
2023-01-03T13:04:38.233Z,4.90
2023-01-03T13:05:50.523Z,5.13
2023-01-03T13:07:20.773Z,4.80
2023-01-03T13:08:45.664Z,4.22
2023-01-03T13:10:01.167Z,5.38
2023-01-03T13:11:16.332Z,4.65
2023-01-03T13:12:23.731Z,5.50
2023-01-03T13:13:26.663Z,6.13
2023-01-03T13:14:29.610Z,5.30
2023-01-03T13:15:37.243Z,4.68
2023-01-03T13:16:49.033Z,5.70
2023-01-03T13:18:22.424Z,6.18
2023-01-03T13:19:28.994Z,5.78
2023-01-03T13:20:35.268Z,5.47
2023-01-03T13:21:55.617Z,7.65
2023-01-03T13:23:21.512Z,6.50
2023-01-03T13:24:45.995Z,6.72
2023-01-03T13:26:06.480Z,6.32
2023-01-03T13:27:33.711Z,5.95
2023-01-03T13:28:40.320Z,6.00
2023-01-03T13:29:57.403Z,5.47
2023-01-03T13:31:14.959Z,5.70
2023-01-03T13:32:20.487Z,5.70
2023-01-03T13:33:23.020Z,6.05
2023-01-03T13:34:34.722Z,5.90
2023-01-03T13:35:57.322Z,6.50
2023-01-03T13:37:08.493Z,5.60
2023-01-03T13:38:36.737Z,6.53
2023-01-03T13:39:57.740Z,5.85
2023-01-03T13:41:18.204Z,6.68
2023-01-03T13:42:32.984Z,5.28
2023-01-03T13:43:39.941Z,5.00
2023-01-03T13:44:42.864Z,4.80
2023-01-03T13:45:45.468Z,5.50
2023-01-03T13:46:50.103Z,5.10
2023-01-03T13:47:54.873Z,5.13
2023-01-03T13:49:08.124Z,4.72
2023-01-03T13:50:33.559Z,4.43
2023-01-03T13:51:45.105Z,4.80
2023-01-03T13:53:02.445Z,5.18
2023-01-03T13:54:12.746Z,5.18
2023-01-03T13:55:35.203Z,5.15
2023-01-03T13:56:43.550Z,5.28
2023-01-03T13:57:53.483Z,6.32
2023-01-03T13:59:43.128Z,6.80
2023-01-03T14:00:47.132Z,7.95
2023-01-03T14:02:08.870Z,7.55
2023-01-03T14:03:34.374Z,9.05
2023-01-03T14:04:57.606Z,7.00
2023-01-03T14:06:31.814Z,7.60
2023-01-03T14:08:08.096Z,6.97
2023-01-03T14:10:01.146Z,6.88
2023-01-03T14:11:28.079Z,6.45
2023-01-03T14:13:10.754Z,6.45
2023-01-03T14:14:17.288Z,6.30
2023-01-03T14:15:26.891Z,5.93
2023-01-03T14:16:46.867Z,7.00
2023-01-03T14:17:55.366Z,6.00
2023-01-03T14:19:20.061Z,5.80
2023-01-03T14:20:29.211Z,6.05
2023-01-03T14:22:27.489Z,5.70
2023-01-03T14:24:57.125Z,8.60
2023-01-03T14:26:16.254Z,8.00
2023-01-03T14:27:21.876Z,8.65
2023-01-03T14:28:33.754Z,8.50
2023-01-03T14:29:40.958Z,8.45
2023-01-03T14:30:44.718Z,8.30
2023-01-03T14:31:53.100Z,7.28
2023-01-03T14:32:55.800Z,7.88
2023-01-03T14:34:01.532Z,7.40
2023-01-03T14:35:04.505Z,6.93
2023-01-03T14:36:16.260Z,6.53
2023-01-03T14:37:24.860Z,7.32
2023-01-03T14:38:29.563Z,7.20
2023-01-03T14:40:34.399Z,7.20
2023-01-03T14:41:39.195Z,6.93
2023-01-03T14:42:47.809Z,6.95
2023-01-03T14:43:58.773Z,6.75
2023-01-03T14:45:08.633Z,6.45
2023-01-03T14:46:12.505Z,6.57
2023-01-03T14:47:17.818Z,5.95
2023-01-03T14:48:21.872Z,6.93
2023-01-03T14:49:48.504Z,6.22
2023-01-03T14:50:51.903Z,5.60
2023-01-03T14:52:04.578Z,5.78
2023-01-03T14:53:09.608Z,5.50
2023-01-03T14:54:17.925Z,5.20
2023-01-03T14:55:27.321Z,4.38
2023-01-03T14:56:30.698Z,5.07
2023-01-03T14:57:39.002Z,5.18
2023-01-03T14:58:47.265Z,5.05
2023-01-03T14:59:51.636Z,4.07
2023-01-03T15:00:55.168Z,5.20
2023-01-03T15:01:58.004Z,4.40
2023-01-03T15:03:03.204Z,3.80
2023-01-03T15:04:06.561Z,4.65
2023-01-03T15:05:44.026Z,4.50
2023-01-03T15:07:11.336Z,4.35
2023-01-03T15:08:28.833Z,3.85
2023-01-03T15:09:35.742Z,4.15
2023-01-03T15:10:51.899Z,5.68
2023-01-03T15:11:59.645Z,4.70
2023-01-03T15:13:05.110Z,4.80
2023-01-03T15:14:12.988Z,4.28
2023-01-03T15:15:24.531Z,5.40
2023-01-03T15:16:38.495Z,5.55
2023-01-03T15:17:44.167Z,5.65
2023-01-03T15:18:47.342Z,6.07
2023-01-03T15:19:56.866Z,6.75
2023-01-03T15:21:01.421Z,6.90
2023-01-03T15:22:14.966Z,7.32
2023-01-03T15:23:38.431Z,7.40
2023-01-03T15:24:47.487Z,9.00
2023-01-03T15:25:52.161Z,8.48
2023-01-03T15:26:55.410Z,8.80
2023-01-03T15:28:35.664Z,6.70
2023-01-03T15:29:45.292Z,7.22
2023-01-03T15:30:50.157Z,7.45
2023-01-03T15:31:58.430Z,7.22
2023-01-03T15:33:05.114Z,6.65
2023-01-03T15:34:17.936Z,7.20
2023-01-03T15:35:32.927Z,6.13
2023-01-03T15:36:35.527Z,7.40
2023-01-03T15:37:38.271Z,6.50
2023-01-03T15:38:45.678Z,7.68
2023-01-03T15:39:51.495Z,6.57
2023-01-03T15:40:54.272Z,7.10
2023-01-03T15:43:42.750Z,7.53
2023-01-03T15:44:46.283Z,6.60
2023-01-03T15:46:01.794Z,6.82
2023-01-03T15:47:07.841Z,7.40
2023-01-03T15:48:17.374Z,7.30
2023-01-03T15:49:25.359Z,7.72
2023-01-03T15:50:47.083Z,7.28
2023-01-03T15:51:49.678Z,7.97
2023-01-03T15:52:52.265Z,8.15
2023-01-03T15:53:54.843Z,7.95
2023-01-03T15:54:57.485Z,7.50